sensor_id;sensor_type;location;lat;lon;timestamp;temperature;humidity
78448;SHT31;67742;51.972;5.682;2023-09-19T00:00:48;18.5;67.5
78448;SHT31;67742;51.972;5.682;2023-09-19T00:03:17;18.5;67.2
78448;SHT31;67742;51.972;5.682;2023-09-19T00:05:46;18.6;67.3
78448;SHT31;67742;51.972;5.682;2023-09-19T00:08:17;18.6;67.3
78448;SHT31;67742;51.972;5.682;2023-09-19T00:10:48;18.6;67.4
78448;SHT31;67742;51.972;5.682;2023-09-19T00:13:17;18.6;67.4
78448;SHT31;67742;51.972;5.682;2023-09-19T00:15:47;18.6;67.3
78448;SHT31;67742;51.972;5.682;2023-09-19T00:18:17;18.6;67.4
78448;SHT31;67742;51.972;5.682;2023-09-19T00:20:48;18.6;67.6
78448;SHT31;67742;51.972;5.682;2023-09-19T00:23:17;18.6;67.5
78448;SHT31;67742;51.972;5.682;2023-09-19T00:25:46;18.6;67.7
78448;SHT31;67742;51.972;5.682;2023-09-19T00:28:16;18.6;67.8
78448;SHT31;67742;51.972;5.682;2023-09-19T00:30:46;18.6;68.1
78448;SHT31;67742;51.972;5.682;2023-09-19T00:33:16;18.6;68.0
78448;SHT31;67742;51.972;5.682;2023-09-19T00:35:49;18.6;68.1
78448;SHT31;67742;51.972;5.682;2023-09-19T00:38:19;18.6;68.2
78448;SHT31;67742;51.972;5.682;2023-09-19T00:40:50;18.6;68.2
78448;SHT31;67742;51.972;5.682;2023-09-19T00:43:19;18.6;68.4
78448;SHT31;67742;51.972;5.682;2023-09-19T00:45:52;18.6;68.6
78448;SHT31;67742;51.972;5.682;2023-09-19T00:48:22;18.6;68.7
78448;SHT31;67742;51.972;5.682;2023-09-19T00:50:51;18.6;68.9
78448;SHT31;67742;51.972;5.682;2023-09-19T00:53:23;18.6;68.8
78448;SHT31;67742;51.972;5.682;2023-09-19T00:55:53;18.6;69.1
78448;SHT31;67742;51.972;5.682;2023-09-19T00:58:23;18.6;69.1
78448;SHT31;67742;51.972;5.682;2023-09-19T01:00:54;18.6;68.8
78448;SHT31;67742;51.972;5.682;2023-09-19T01:03:22;18.6;68.8
78448;SHT31;67742;51.972;5.682;2023-09-19T01:05:51;18.6;68.9
78448;SHT31;67742;51.972;5.682;2023-09-19T01:08:20;18.6;68.6
78448;SHT31;67742;51.972;5.682;2023-09-19T01:10:54;18.6;68.8
78448;SHT31;67742;51.972;5.682;2023-09-19T01:13:31;18.6;68.7
78448;SHT31;67742;51.972;5.682;2023-09-19T01:16:07;18.6;69.0
78448;SHT31;67742;51.972;5.682;2023-09-19T01:18:47;18.6;68.9
78448;SHT31;67742;51.972;5.682;2023-09-19T01:21:22;18.6;69.1
78448;SHT31;67742;51.972;5.682;2023-09-19T01:24:15;18.6;68.9
78448;SHT31;67742;51.972;5.682;2023-09-19T01:27:01;18.6;68.8
78448;SHT31;67742;51.972;5.682;2023-09-19T01:29:38;18.6;68.4
78448;SHT31;67742;51.972;5.682;2023-09-19T01:32:08;18.6;67.7
78448;SHT31;67742;51.972;5.682;2023-09-19T01:34:49;18.6;67.3
78448;SHT31;67742;51.972;5.682;2023-09-19T01:37:21;18.5;67.3
78448;SHT31;67742;51.972;5.682;2023-09-19T01:39:57;18.5;67.2
78448;SHT31;67742;51.972;5.682;2023-09-19T01:42:40;18.5;66.9
78448;SHT31;67742;51.972;5.682;2023-09-19T01:45:13;18.5;66.6
78448;SHT31;67742;51.972;5.682;2023-09-19T01:47:51;18.4;66.0
78448;SHT31;67742;51.972;5.682;2023-09-19T01:50:31;18.4;66.7
78448;SHT31;67742;51.972;5.682;2023-09-19T01:53:06;18.4;66.0
78448;SHT31;67742;51.972;5.682;2023-09-19T01:55:42;18.3;66.5
78448;SHT31;67742;51.972;5.682;2023-09-19T01:58:18;18.3;65.3
78448;SHT31;67742;51.972;5.682;2023-09-19T02:00:49;18.3;65.3
78448;SHT31;67742;51.972;5.682;2023-09-19T02:03:20;18.2;65.6
78448;SHT31;67742;51.972;5.682;2023-09-19T02:05:51;18.2;65.4
78448;SHT31;67742;51.972;5.682;2023-09-19T02:08:22;18.1;66.0
78448;SHT31;67742;51.972;5.682;2023-09-19T02:10:52;18.1;65.4
78448;SHT31;67742;51.972;5.682;2023-09-19T02:13:25;18.1;65.8
78448;SHT31;67742;51.972;5.682;2023-09-19T02:15:55;18.0;65.7
78448;SHT31;67742;51.972;5.682;2023-09-19T02:18:23;18.0;65.7
78448;SHT31;67742;51.972;5.682;2023-09-19T02:20:53;18.0;65.4
78448;SHT31;67742;51.972;5.682;2023-09-19T02:23:22;18.0;65.5
78448;SHT31;67742;51.972;5.682;2023-09-19T02:25:55;17.9;65.4
78448;SHT31;67742;51.972;5.682;2023-09-19T02:28:24;17.9;65.3
78448;SHT31;67742;51.972;5.682;2023-09-19T02:30:56;17.9;65.1
78448;SHT31;67742;51.972;5.682;2023-09-19T02:33:25;17.9;65.1
78448;SHT31;67742;51.972;5.682;2023-09-19T02:35:57;17.9;64.7
78448;SHT31;67742;51.972;5.682;2023-09-19T02:38:26;17.8;64.5
78448;SHT31;67742;51.972;5.682;2023-09-19T02:40:55;17.8;64.1
78448;SHT31;67742;51.972;5.682;2023-09-19T02:43:25;17.8;64.7
78448;SHT31;67742;51.972;5.682;2023-09-19T02:45:54;17.8;64.1
78448;SHT31;67742;51.972;5.682;2023-09-19T02:48:25;17.8;64.3
78448;SHT31;67742;51.972;5.682;2023-09-19T02:50:55;17.7;64.2
78448;SHT31;67742;51.972;5.682;2023-09-19T02:53:24;17.7;64.0
78448;SHT31;67742;51.972;5.682;2023-09-19T02:55:54;17.7;64.2
78448;SHT31;67742;51.972;5.682;2023-09-19T02:58:23;17.7;64.1
78448;SHT31;67742;51.972;5.682;2023-09-19T03:00:51;17.6;64.4
78448;SHT31;67742;51.972;5.682;2023-09-19T03:03:21;17.6;63.3
78448;SHT31;67742;51.972;5.682;2023-09-19T03:05:49;17.6;63.2
78448;SHT31;67742;51.972;5.682;2023-09-19T03:08:21;17.6;62.6
78448;SHT31;67742;51.972;5.682;2023-09-19T03:10:51;17.5;63.3
78448;SHT31;67742;51.972;5.682;2023-09-19T03:13:19;17.5;63.8
78448;SHT31;67742;51.972;5.682;2023-09-19T03:15:50;17.5;63.7
78448;SHT31;67742;51.972;5.682;2023-09-19T03:18:18;17.4;63.7
78448;SHT31;67742;51.972;5.682;2023-09-19T03:20:54;17.4;64.2
78448;SHT31;67742;51.972;5.682;2023-09-19T03:23:23;17.4;63.3
78448;SHT31;67742;51.972;5.682;2023-09-19T03:25:52;17.4;63.8
78448;SHT31;67742;51.972;5.682;2023-09-19T03:28:22;17.4;62.7
78448;SHT31;67742;51.972;5.682;2023-09-19T03:30:59;17.4;62.8
78448;SHT31;67742;51.972;5.682;2023-09-19T03:33:29;17.4;62.5
78448;SHT31;67742;51.972;5.682;2023-09-19T03:36:00;17.4;61.7
78448;SHT31;67742;51.972;5.682;2023-09-19T03:38:31;17.4;61.7
78448;SHT31;67742;51.972;5.682;2023-09-19T03:41:01;17.3;62.0
78448;SHT31;67742;51.972;5.682;2023-09-19T03:43:31;17.3;62.2
78448;SHT31;67742;51.972;5.682;2023-09-19T03:46:03;17.3;61.9
78448;SHT31;67742;51.972;5.682;2023-09-19T03:48:34;17.3;61.8
78448;SHT31;67742;51.972;5.682;2023-09-19T03:51:03;17.2;61.7
78448;SHT31;67742;51.972;5.682;2023-09-19T03:53:33;17.2;62.5
78448;SHT31;67742;51.972;5.682;2023-09-19T03:56:01;17.2;61.9
78448;SHT31;67742;51.972;5.682;2023-09-19T03:58:32;17.2;61.6
78448;SHT31;67742;51.972;5.682;2023-09-19T04:01:05;17.1;61.9
78448;SHT31;67742;51.972;5.682;2023-09-19T04:03:35;17.1;61.6
78448;SHT31;67742;51.972;5.682;2023-09-19T04:06:09;17.1;62.6
78448;SHT31;67742;51.972;5.682;2023-09-19T04:08:38;17.1;62.2
78448;SHT31;67742;51.972;5.682;2023-09-19T04:11:06;17.0;62.1
78448;SHT31;67742;51.972;5.682;2023-09-19T04:13:35;17.0;62.2
78448;SHT31;67742;51.972;5.682;2023-09-19T04:16:04;17.0;62.0
78448;SHT31;67742;51.972;5.682;2023-09-19T04:18:34;17.0;61.8
78448;SHT31;67742;51.972;5.682;2023-09-19T04:21:04;17.0;61.7
78448;SHT31;67742;51.972;5.682;2023-09-19T04:23:35;16.9;61.4
78448;SHT31;67742;51.972;5.682;2023-09-19T04:26:03;16.9;61.2
78448;SHT31;67742;51.972;5.682;2023-09-19T04:28:32;16.9;62.0
78448;SHT31;67742;51.972;5.682;2023-09-19T04:31:04;16.9;62.0
78448;SHT31;67742;51.972;5.682;2023-09-19T04:33:34;16.8;61.8
78448;SHT31;67742;51.972;5.682;2023-09-19T04:36:03;16.8;62.0
78448;SHT31;67742;51.972;5.682;2023-09-19T04:38:34;16.8;62.7
78448;SHT31;67742;51.972;5.682;2023-09-19T04:41:05;16.8;62.5
78448;SHT31;67742;51.972;5.682;2023-09-19T04:43:35;16.8;62.1
78448;SHT31;67742;51.972;5.682;2023-09-19T04:46:03;16.8;62.5
78448;SHT31;67742;51.972;5.682;2023-09-19T04:48:33;16.7;62.3
78448;SHT31;67742;51.972;5.682;2023-09-19T04:51:03;16.7;62.5
78448;SHT31;67742;51.972;5.682;2023-09-19T04:53:31;16.7;62.3
78448;SHT31;67742;51.972;5.682;2023-09-19T04:56:00;16.7;62.7
78448;SHT31;67742;51.972;5.682;2023-09-19T04:58:30;16.7;62.7
78448;SHT31;67742;51.972;5.682;2023-09-19T05:00:58;16.7;63.0
78448;SHT31;67742;51.972;5.682;2023-09-19T05:03:30;16.7;62.9
78448;SHT31;67742;51.972;5.682;2023-09-19T05:05:59;16.7;63.0
78448;SHT31;67742;51.972;5.682;2023-09-19T05:08:27;16.6;63.3
78448;SHT31;67742;51.972;5.682;2023-09-19T05:10:56;16.6;63.0
78448;SHT31;67742;51.972;5.682;2023-09-19T05:13:24;16.6;63.9
78448;SHT31;67742;51.972;5.682;2023-09-19T05:15:54;16.6;63.9
78448;SHT31;67742;51.972;5.682;2023-09-19T05:18:22;16.7;64.0
78448;SHT31;67742;51.972;5.682;2023-09-19T05:20:52;16.7;63.9
78448;SHT31;67742;51.972;5.682;2023-09-19T05:23:21;16.7;63.9
78448;SHT31;67742;51.972;5.682;2023-09-19T05:25:49;16.7;63.9
78448;SHT31;67742;51.972;5.682;2023-09-19T05:28:19;16.7;63.6
78448;SHT31;67742;51.972;5.682;2023-09-19T05:30:49;16.7;63.7
78448;SHT31;67742;51.972;5.682;2023-09-19T05:33:20;16.7;63.9
78448;SHT31;67742;51.972;5.682;2023-09-19T05:35:49;16.7;64.1
78448;SHT31;67742;51.972;5.682;2023-09-19T05:38:20;16.7;63.8
78448;SHT31;67742;51.972;5.682;2023-09-19T05:40:49;16.7;64.1
78448;SHT31;67742;51.972;5.682;2023-09-19T05:43:17;16.7;64.3
78448;SHT31;67742;51.972;5.682;2023-09-19T05:45:48;16.7;64.3
78448;SHT31;67742;51.972;5.682;2023-09-19T05:48:18;16.7;64.6
78448;SHT31;67742;51.972;5.682;2023-09-19T05:50:47;16.7;64.5
78448;SHT31;67742;51.972;5.682;2023-09-19T05:53:16;16.7;64.7
78448;SHT31;67742;51.972;5.682;2023-09-19T05:55:45;16.7;64.7
78448;SHT31;67742;51.972;5.682;2023-09-19T05:58:14;16.7;64.7
78448;SHT31;67742;51.972;5.682;2023-09-19T06:00:44;16.6;65.1
78448;SHT31;67742;51.972;5.682;2023-09-19T06:03:14;16.6;65.2
78448;SHT31;67742;51.972;5.682;2023-09-19T06:05:44;16.7;65.4
78448;SHT31;67742;51.972;5.682;2023-09-19T06:08:16;16.7;65.0
78448;SHT31;67742;51.972;5.682;2023-09-19T06:10:45;16.7;65.3
78448;SHT31;67742;51.972;5.682;2023-09-19T06:13:15;16.7;65.5
78448;SHT31;67742;51.972;5.682;2023-09-19T06:15:44;16.7;65.6
78448;SHT31;67742;51.972;5.682;2023-09-19T06:18:14;16.7;65.6
78448;SHT31;67742;51.972;5.682;2023-09-19T06:20:46;16.7;65.6
78448;SHT31;67742;51.972;5.682;2023-09-19T06:23:18;16.7;66.0
78448;SHT31;67742;51.972;5.682;2023-09-19T06:25:47;16.7;65.9
78448;SHT31;67742;51.972;5.682;2023-09-19T06:28:16;16.7;65.9
78448;SHT31;67742;51.972;5.682;2023-09-19T06:30:50;16.7;66.0
78448;SHT31;67742;51.972;5.682;2023-09-19T06:33:20;16.7;66.3
78448;SHT31;67742;51.972;5.682;2023-09-19T06:35:50;16.7;66.6
78448;SHT31;67742;51.972;5.682;2023-09-19T06:38:23;16.7;66.8
78448;SHT31;67742;51.972;5.682;2023-09-19T06:40:53;16.7;67.5
78448;SHT31;67742;51.972;5.682;2023-09-19T06:43:23;16.7;67.2
78448;SHT31;67742;51.972;5.682;2023-09-19T06:45:53;16.7;67.2
78448;SHT31;67742;51.972;5.682;2023-09-19T06:48:23;16.7;67.7
78448;SHT31;67742;51.972;5.682;2023-09-19T06:50:53;16.7;67.4
78448;SHT31;67742;51.972;5.682;2023-09-19T06:53:25;16.8;67.7
78448;SHT31;67742;51.972;5.682;2023-09-19T06:55:53;16.8;67.4
78448;SHT31;67742;51.972;5.682;2023-09-19T06:58:22;16.8;67.5
78448;SHT31;67742;51.972;5.682;2023-09-19T07:00:50;16.8;67.6
78448;SHT31;67742;51.972;5.682;2023-09-19T07:03:20;16.9;67.7
78448;SHT31;67742;51.972;5.682;2023-09-19T07:05:52;16.9;67.9
78448;SHT31;67742;51.972;5.682;2023-09-19T07:08:22;16.9;67.7
78448;SHT31;67742;51.972;5.682;2023-09-19T07:10:53;16.9;67.7
78448;SHT31;67742;51.972;5.682;2023-09-19T07:13:22;16.9;67.8
78448;SHT31;67742;51.972;5.682;2023-09-19T07:15:51;17.0;67.7
78448;SHT31;67742;51.972;5.682;2023-09-19T07:18:20;17.0;67.8
78448;SHT31;67742;51.972;5.682;2023-09-19T07:20:49;17.0;67.8
78448;SHT31;67742;51.972;5.682;2023-09-19T07:23:19;17.0;68.1
78448;SHT31;67742;51.972;5.682;2023-09-19T07:25:49;17.0;68.0
78448;SHT31;67742;51.972;5.682;2023-09-19T07:28:18;17.0;68.1
78448;SHT31;67742;51.972;5.682;2023-09-19T07:30:46;17.0;68.1
78448;SHT31;67742;51.972;5.682;2023-09-19T07:33:15;17.0;68.0
78448;SHT31;67742;51.972;5.682;2023-09-19T07:35:47;17.1;68.2
78448;SHT31;67742;51.972;5.682;2023-09-19T07:38:16;17.1;68.1
78448;SHT31;67742;51.972;5.682;2023-09-19T07:40:45;17.1;68.1
78448;SHT31;67742;51.972;5.682;2023-09-19T07:43:16;17.1;67.5
78448;SHT31;67742;51.972;5.682;2023-09-19T07:45:44;17.2;67.6
78448;SHT31;67742;51.972;5.682;2023-09-19T07:48:13;17.2;67.7
78448;SHT31;67742;51.972;5.682;2023-09-19T07:50:42;17.2;67.6
78448;SHT31;67742;51.972;5.682;2023-09-19T07:53:11;17.2;67.8
78448;SHT31;67742;51.972;5.682;2023-09-19T07:55:43;17.3;67.4
78448;SHT31;67742;51.972;5.682;2023-09-19T07:58:14;17.3;67.8
78448;SHT31;67742;51.972;5.682;2023-09-19T08:00:42;17.3;67.7
78448;SHT31;67742;51.972;5.682;2023-09-19T08:03:12;17.4;67.8
78448;SHT31;67742;51.972;5.682;2023-09-19T08:05:41;17.4;67.5
78448;SHT31;67742;51.972;5.682;2023-09-19T08:08:10;17.4;67.3
78448;SHT31;67742;51.972;5.682;2023-09-19T08:10:40;17.5;67.8
78448;SHT31;67742;51.972;5.682;2023-09-19T08:13:12;17.5;67.2
78448;SHT31;67742;51.972;5.682;2023-09-19T08:15:45;17.5;67.3
78448;SHT31;67742;51.972;5.682;2023-09-19T08:18:14;17.5;67.4
78448;SHT31;67742;51.972;5.682;2023-09-19T08:20:48;17.6;67.4
78448;SHT31;67742;51.972;5.682;2023-09-19T08:23:17;17.6;67.1
78448;SHT31;67742;51.972;5.682;2023-09-19T08:25:47;17.7;67.7
78448;SHT31;67742;51.972;5.682;2023-09-19T08:28:16;17.7;67.2
78448;SHT31;67742;51.972;5.682;2023-09-19T08:30:51;17.7;67.5
78448;SHT31;67742;51.972;5.682;2023-09-19T08:33:21;17.8;67.1
78448;SHT31;67742;51.972;5.682;2023-09-19T08:35:51;17.8;67.1
78448;SHT31;67742;51.972;5.682;2023-09-19T08:38:20;17.9;67.2
78448;SHT31;67742;51.972;5.682;2023-09-19T08:40:50;17.9;67.0
78448;SHT31;67742;51.972;5.682;2023-09-19T08:43:21;17.9;66.7
78448;SHT31;67742;51.972;5.682;2023-09-19T08:45:52;18.0;66.9
78448;SHT31;67742;51.972;5.682;2023-09-19T08:48:26;18.0;66.9
78448;SHT31;67742;51.972;5.682;2023-09-19T08:51:02;18.0;67.0
78448;SHT31;67742;51.972;5.682;2023-09-19T08:53:40;18.1;66.6
78448;SHT31;67742;51.972;5.682;2023-09-19T08:56:13;18.1;66.6
78448;SHT31;67742;51.972;5.682;2023-09-19T08:58:46;18.1;65.9
78448;SHT31;67742;51.972;5.682;2023-09-19T09:01:17;18.2;66.6
78448;SHT31;67742;51.972;5.682;2023-09-19T09:03:53;18.2;65.8
78448;SHT31;67742;51.972;5.682;2023-09-19T09:06:24;18.3;65.8
78448;SHT31;67742;51.972;5.682;2023-09-19T09:08:54;18.3;65.9
78448;SHT31;67742;51.972;5.682;2023-09-19T09:11:23;18.3;65.7
78448;SHT31;67742;51.972;5.682;2023-09-19T09:13:52;18.4;64.8
78448;SHT31;67742;51.972;5.682;2023-09-19T09:16:21;18.4;65.6
78448;SHT31;67742;51.972;5.682;2023-09-19T09:18:52;18.4;65.6
78448;SHT31;67742;51.972;5.682;2023-09-19T09:21:21;18.5;65.4
78448;SHT31;67742;51.972;5.682;2023-09-19T09:23:50;18.5;65.7
78448;SHT31;67742;51.972;5.682;2023-09-19T09:26:43;18.6;65.0
78448;SHT31;67742;51.972;5.682;2023-09-19T09:29:15;18.7;65.2
78448;SHT31;67742;51.972;5.682;2023-09-19T09:31:45;18.8;63.9
78448;SHT31;67742;51.972;5.682;2023-09-19T09:34:16;18.8;63.7
78448;SHT31;67742;51.972;5.682;2023-09-19T09:36:48;18.9;63.5
78448;SHT31;67742;51.972;5.682;2023-09-19T09:39:31;19.0;63.4
78448;SHT31;67742;51.972;5.682;2023-09-19T09:42:02;19.0;62.9
78448;SHT31;67742;51.972;5.682;2023-09-19T09:44:33;19.1;62.2
78448;SHT31;67742;51.972;5.682;2023-09-19T09:47:02;19.2;62.0
78448;SHT31;67742;51.972;5.682;2023-09-19T09:49:49;19.2;62.1
78448;SHT31;67742;51.972;5.682;2023-09-19T09:52:28;19.3;61.2
78448;SHT31;67742;51.972;5.682;2023-09-19T09:55:03;19.4;61.8
78448;SHT31;67742;51.972;5.682;2023-09-19T09:57:34;19.4;61.9
78448;SHT31;67742;51.972;5.682;2023-09-19T10:00:10;19.5;61.9
78448;SHT31;67742;51.972;5.682;2023-09-19T10:02:46;19.5;62.0
78448;SHT31;67742;51.972;5.682;2023-09-19T10:05:17;19.6;61.3
78448;SHT31;67742;51.972;5.682;2023-09-19T10:07:55;19.7;60.5
78448;SHT31;67742;51.972;5.682;2023-09-19T10:10:32;19.7;59.9
78448;SHT31;67742;51.972;5.682;2023-09-19T10:13:13;19.8;60.0
78448;SHT31;67742;51.972;5.682;2023-09-19T10:15:48;19.8;60.0
78448;SHT31;67742;51.972;5.682;2023-09-19T10:18:20;19.9;60.3
78448;SHT31;67742;51.972;5.682;2023-09-19T10:20:50;19.9;59.7
78448;SHT31;67742;51.972;5.682;2023-09-19T10:23:21;19.9;59.7
78448;SHT31;67742;51.972;5.682;2023-09-19T10:25:53;20.0;59.4
78448;SHT31;67742;51.972;5.682;2023-09-19T10:28:21;20.0;60.3
78448;SHT31;67742;51.972;5.682;2023-09-19T10:30:52;20.1;58.5
78448;SHT31;67742;51.972;5.682;2023-09-19T10:33:22;20.2;59.6
78448;SHT31;67742;51.972;5.682;2023-09-19T10:35:54;20.2;59.1
78448;SHT31;67742;51.972;5.682;2023-09-19T10:38:26;20.3;58.0
78448;SHT31;67742;51.972;5.682;2023-09-19T10:40:57;20.3;58.5
78448;SHT31;67742;51.972;5.682;2023-09-19T10:43:31;20.4;59.2
78448;SHT31;67742;51.972;5.682;2023-09-19T10:46:06;20.5;58.8
78448;SHT31;67742;51.972;5.682;2023-09-19T10:48:37;20.5;58.6
78448;SHT31;67742;51.972;5.682;2023-09-19T10:51:12;20.6;58.8
78448;SHT31;67742;51.972;5.682;2023-09-19T10:53:48;20.7;57.5
78448;SHT31;67742;51.972;5.682;2023-09-19T10:56:24;20.7;57.8
78448;SHT31;67742;51.972;5.682;2023-09-19T10:59:09;20.8;58.5
78448;SHT31;67742;51.972;5.682;2023-09-19T11:01:45;20.9;57.9
78448;SHT31;67742;51.972;5.682;2023-09-19T11:04:24;20.9;57.4
78448;SHT31;67742;51.972;5.682;2023-09-19T11:07:01;21.0;57.7
78448;SHT31;67742;51.972;5.682;2023-09-19T11:09:48;21.1;56.7
78448;SHT31;67742;51.972;5.682;2023-09-19T11:12:50;21.1;56.4
78448;SHT31;67742;51.972;5.682;2023-09-19T11:16:38;21.2;57.0
78448;SHT31;67742;51.972;5.682;2023-09-19T11:19:07;21.2;57.0
78448;SHT31;67742;51.972;5.682;2023-09-19T11:21:52;21.3;56.3
78448;SHT31;67742;51.972;5.682;2023-09-19T11:24:31;21.4;56.7
78448;SHT31;67742;51.972;5.682;2023-09-19T11:27:16;21.4;55.3
78448;SHT31;67742;51.972;5.682;2023-09-19T11:29:46;21.5;55.5
78448;SHT31;67742;51.972;5.682;2023-09-19T11:32:16;21.5;55.5
78448;SHT31;67742;51.972;5.682;2023-09-19T11:34:47;21.5;55.4
78448;SHT31;67742;51.972;5.682;2023-09-19T11:41:46;21.6;55.6
78448;SHT31;67742;51.972;5.682;2023-09-19T11:44:52;21.6;54.7
78448;SHT31;67742;51.972;5.682;2023-09-19T11:47:23;21.7;55.2
78448;SHT31;67742;51.972;5.682;2023-09-19T11:49:52;21.7;55.4
78448;SHT31;67742;51.972;5.682;2023-09-19T11:52:25;21.8;54.4
78448;SHT31;67742;51.972;5.682;2023-09-19T11:54:56;21.8;53.2
78448;SHT31;67742;51.972;5.682;2023-09-19T11:57:27;21.8;54.0
78448;SHT31;67742;51.972;5.682;2023-09-19T11:59:57;21.9;54.9
78448;SHT31;67742;51.972;5.682;2023-09-19T12:02:39;21.9;54.8
78448;SHT31;67742;51.972;5.682;2023-09-19T12:05:09;22.0;53.6
78448;SHT31;67742;51.972;5.682;2023-09-19T12:07:44;22.0;53.8
78448;SHT31;67742;51.972;5.682;2023-09-19T12:10:15;22.0;53.8
78448;SHT31;67742;51.972;5.682;2023-09-19T12:12:52;22.1;53.4
78448;SHT31;67742;51.972;5.682;2023-09-19T12:15:26;22.1;53.8
78448;SHT31;67742;51.972;5.682;2023-09-19T12:18:04;22.1;52.8
78448;SHT31;67742;51.972;5.682;2023-09-19T12:20:44;22.2;53.2
78448;SHT31;67742;51.972;5.682;2023-09-19T12:23:15;22.2;52.3
78448;SHT31;67742;51.972;5.682;2023-09-19T12:25:44;22.2;52.2
78448;SHT31;67742;51.972;5.682;2023-09-19T12:28:15;22.2;52.0
78448;SHT31;67742;51.972;5.682;2023-09-19T12:30:44;22.2;51.3
78448;SHT31;67742;51.972;5.682;2023-09-19T12:33:18;22.2;51.4
78448;SHT31;67742;51.972;5.682;2023-09-19T12:35:51;22.2;51.6
78448;SHT31;67742;51.972;5.682;2023-09-19T12:38:26;22.2;51.7
78448;SHT31;67742;51.972;5.682;2023-09-19T12:41:01;22.1;51.5
78448;SHT31;67742;51.972;5.682;2023-09-19T12:43:33;22.1;51.9
78448;SHT31;67742;51.972;5.682;2023-09-19T12:46:04;22.1;52.3
78448;SHT31;67742;51.972;5.682;2023-09-19T12:48:32;22.1;52.1
78448;SHT31;67742;51.972;5.682;2023-09-19T12:51:06;22.0;52.2
78448;SHT31;67742;51.972;5.682;2023-09-19T12:53:40;22.0;52.4
78448;SHT31;67742;51.972;5.682;2023-09-19T12:56:14;22.0;52.1
78448;SHT31;67742;51.972;5.682;2023-09-19T12:58:53;21.9;52.5
78448;SHT31;67742;51.972;5.682;2023-09-19T13:01:23;21.9;52.7
78448;SHT31;67742;51.972;5.682;2023-09-19T13:04:12;21.9;52.7
78448;SHT31;67742;51.972;5.682;2023-09-19T13:06:45;21.9;53.3
78448;SHT31;67742;51.972;5.682;2023-09-19T13:09:16;21.8;53.1
78448;SHT31;67742;51.972;5.682;2023-09-19T13:11:47;21.8;53.2
78448;SHT31;67742;51.972;5.682;2023-09-19T13:14:19;21.8;52.9
78448;SHT31;67742;51.972;5.682;2023-09-19T13:17:08;21.8;53.2
78448;SHT31;67742;51.972;5.682;2023-09-19T13:19:44;21.8;53.3
78448;SHT31;67742;51.972;5.682;2023-09-19T13:24:19;21.7;53.6
78448;SHT31;67742;51.972;5.682;2023-09-19T13:26:49;21.7;53.6
78448;SHT31;67742;51.972;5.682;2023-09-19T13:29:18;21.7;53.7
78448;SHT31;67742;51.972;5.682;2023-09-19T13:31:48;21.7;53.8
78448;SHT31;67742;51.972;5.682;2023-09-19T13:34:21;21.6;53.9
78448;SHT31;67742;51.972;5.682;2023-09-19T13:36:51;21.6;53.7
78448;SHT31;67742;51.972;5.682;2023-09-19T13:39:20;21.6;53.9
78448;SHT31;67742;51.972;5.682;2023-09-19T13:41:51;21.6;53.9
78448;SHT31;67742;51.972;5.682;2023-09-19T13:44:19;21.6;54.3
78448;SHT31;67742;51.972;5.682;2023-09-19T13:46:48;21.5;54.2
78448;SHT31;67742;51.972;5.682;2023-09-19T13:49:19;21.5;54.8
78448;SHT31;67742;51.972;5.682;2023-09-19T13:51:47;21.5;54.6
78448;SHT31;67742;51.972;5.682;2023-09-19T13:54:16;21.5;54.6
78448;SHT31;67742;51.972;5.682;2023-09-19T13:56:45;21.5;55.0
78448;SHT31;67742;51.972;5.682;2023-09-19T13:59:14;21.5;55.2
78448;SHT31;67742;51.972;5.682;2023-09-19T14:01:43;21.5;55.4
78448;SHT31;67742;51.972;5.682;2023-09-19T14:04:12;21.5;54.9
78448;SHT31;67742;51.972;5.682;2023-09-19T14:06:43;21.6;54.8
78448;SHT31;67742;51.972;5.682;2023-09-19T14:09:12;21.6;54.2
78448;SHT31;67742;51.972;5.682;2023-09-19T14:11:46;21.6;54.3
78448;SHT31;67742;51.972;5.682;2023-09-19T14:14:15;21.6;54.8
78448;SHT31;67742;51.972;5.682;2023-09-19T14:16:43;21.6;55.1
78448;SHT31;67742;51.972;5.682;2023-09-19T14:19:12;21.6;54.9
78448;SHT31;67742;51.972;5.682;2023-09-19T14:21:43;21.6;55.7
78448;SHT31;67742;51.972;5.682;2023-09-19T14:24:16;21.6;55.9
78448;SHT31;67742;51.972;5.682;2023-09-19T14:26:45;21.7;55.0
78448;SHT31;67742;51.972;5.682;2023-09-19T14:29:14;21.7;55.2
78448;SHT31;67742;51.972;5.682;2023-09-19T14:31:43;21.7;54.9
78448;SHT31;67742;51.972;5.682;2023-09-19T14:34:11;21.7;54.5
78448;SHT31;67742;51.972;5.682;2023-09-19T14:36:41;21.7;54.9
78448;SHT31;67742;51.972;5.682;2023-09-19T14:39:10;21.7;55.5
78448;SHT31;67742;51.972;5.682;2023-09-19T14:41:40;21.7;54.5
78448;SHT31;67742;51.972;5.682;2023-09-19T14:44:08;21.7;54.9
78448;SHT31;67742;51.972;5.682;2023-09-19T14:46:38;21.7;54.8
78448;SHT31;67742;51.972;5.682;2023-09-19T14:49:07;21.7;54.7
78448;SHT31;67742;51.972;5.682;2023-09-19T14:51:37;21.7;54.6
78448;SHT31;67742;51.972;5.682;2023-09-19T14:54:10;21.7;54.6
78448;SHT31;67742;51.972;5.682;2023-09-19T14:56:39;21.7;54.8
78448;SHT31;67742;51.972;5.682;2023-09-19T14:59:07;21.7;54.2
78448;SHT31;67742;51.972;5.682;2023-09-19T15:01:37;21.7;54.1
78448;SHT31;67742;51.972;5.682;2023-09-19T15:04:07;21.7;54.7
78448;SHT31;67742;51.972;5.682;2023-09-19T15:06:36;21.7;54.6
78448;SHT31;67742;51.972;5.682;2023-09-19T15:09:04;21.6;54.6
78448;SHT31;67742;51.972;5.682;2023-09-19T15:11:36;21.6;54.6
78448;SHT31;67742;51.972;5.682;2023-09-19T15:14:04;21.6;54.7
78448;SHT31;67742;51.972;5.682;2023-09-19T15:16:32;21.6;54.8
78448;SHT31;67742;51.972;5.682;2023-09-19T15:19:02;21.6;55.0
78448;SHT31;67742;51.972;5.682;2023-09-19T15:21:31;21.6;55.2
78448;SHT31;67742;51.972;5.682;2023-09-19T15:23:59;21.5;55.0
78448;SHT31;67742;51.972;5.682;2023-09-19T15:26:29;21.5;55.2
78448;SHT31;67742;51.972;5.682;2023-09-19T15:28:59;21.5;55.2
78448;SHT31;67742;51.972;5.682;2023-09-19T15:31:28;21.5;55.1
78448;SHT31;67742;51.972;5.682;2023-09-19T15:33:56;21.5;55.4
78448;SHT31;67742;51.972;5.682;2023-09-19T15:36:25;21.5;55.1
78448;SHT31;67742;51.972;5.682;2023-09-19T15:39:02;21.5;55.2
78448;SHT31;67742;51.972;5.682;2023-09-19T15:41:33;21.5;55.6
78448;SHT31;67742;51.972;5.682;2023-09-19T15:44:10;21.4;55.5
78448;SHT31;67742;51.972;5.682;2023-09-19T15:46:38;21.4;55.5
78448;SHT31;67742;51.972;5.682;2023-09-19T15:49:07;21.4;55.5
78448;SHT31;67742;51.972;5.682;2023-09-19T15:51:36;21.4;55.6
78448;SHT31;67742;51.972;5.682;2023-09-19T15:54:10;21.4;55.5
78448;SHT31;67742;51.972;5.682;2023-09-19T15:56:40;21.4;55.5
78448;SHT31;67742;51.972;5.682;2023-09-19T15:59:09;21.4;56.1
78448;SHT31;67742;51.972;5.682;2023-09-19T16:01:40;21.3;56.6
78448;SHT31;67742;51.972;5.682;2023-09-19T16:04:09;21.3;56.1
78448;SHT31;67742;51.972;5.682;2023-09-19T16:06:39;21.3;56.2
78448;SHT31;67742;51.972;5.682;2023-09-19T16:09:08;21.3;56.4
78448;SHT31;67742;51.972;5.682;2023-09-19T16:11:38;21.3;56.2
78448;SHT31;67742;51.972;5.682;2023-09-19T16:14:07;21.3;56.6
78448;SHT31;67742;51.972;5.682;2023-09-19T16:16:36;21.3;57.1
78448;SHT31;67742;51.972;5.682;2023-09-19T16:19:05;21.2;57.2
78448;SHT31;67742;51.972;5.682;2023-09-19T16:21:37;21.2;57.2
78448;SHT31;67742;51.972;5.682;2023-09-19T16:24:07;21.2;57.4
78448;SHT31;67742;51.972;5.682;2023-09-19T16:26:38;21.2;57.6
78448;SHT31;67742;51.972;5.682;2023-09-19T16:29:08;21.1;57.5
78448;SHT31;67742;51.972;5.682;2023-09-19T16:31:37;21.1;57.1
78448;SHT31;67742;51.972;5.682;2023-09-19T16:34:07;21.1;57.0
78448;SHT31;67742;51.972;5.682;2023-09-19T16:36:36;21.1;57.4